createdAt,value
2019-02-16T00:01:01.089Z,1.53
2019-02-16T00:03:33.789Z,1.60
2019-02-16T00:06:07.082Z,1.23
2019-02-16T00:08:40.010Z,1.50
2019-02-16T00:11:12.775Z,1.63
2019-02-16T00:13:46.347Z,1.70
2019-02-16T00:16:19.122Z,1.23
2019-02-16T00:18:52.111Z,1.27
2019-02-16T00:21:34.803Z,1.10
2019-02-16T00:24:08.642Z,1.90
2019-02-16T00:26:42.476Z,1.47
2019-02-16T00:29:15.547Z,1.37
2019-02-16T00:31:48.304Z,1.00
2019-02-16T00:34:21.172Z,1.60
2019-02-16T00:36:55.036Z,1.93
2019-02-16T00:39:28.425Z,1.30
2019-02-16T00:42:01.213Z,1.23
2019-02-16T00:44:35.055Z,1.70
2019-02-16T00:47:07.877Z,1.40
2019-02-16T00:49:41.685Z,1.10
2019-02-16T00:52:14.319Z,1.33
2019-02-16T00:54:48.070Z,1.80
2019-02-16T00:57:20.839Z,1.30
2019-02-16T00:59:55.026Z,1.70
2019-02-16T01:02:27.634Z,1.80
2019-02-16T01:05:00.432Z,1.80
2019-02-16T01:07:33.200Z,1.90
2019-02-16T01:10:07.009Z,1.40
2019-02-16T01:12:42.029Z,2.12
2019-02-16T01:15:14.974Z,1.10
2019-02-16T01:17:48.565Z,1.62
2019-02-16T01:20:21.918Z,1.62
2019-02-16T01:22:55.733Z,1.80
2019-02-16T01:25:29.073Z,1.13
2019-02-16T01:28:02.633Z,1.80
2019-02-16T01:30:36.013Z,1.10
2019-02-16T01:33:09.737Z,1.55
2019-02-16T01:35:43.030Z,2.02
2019-02-16T01:38:16.667Z,1.40
2019-02-16T01:40:49.888Z,1.75
2019-02-16T01:43:23.655Z,1.60
2019-02-16T01:45:56.967Z,1.75
2019-02-16T01:48:30.323Z,1.20
2019-02-16T01:51:04.076Z,1.52
2019-02-16T01:53:36.899Z,1.90
2019-02-16T01:56:10.175Z,1.52
2019-02-16T01:58:42.988Z,1.67
2019-02-16T02:01:15.759Z,1.70
2019-02-16T02:03:48.736Z,1.57
2019-02-16T02:06:21.616Z,1.22
2019-02-16T02:08:54.921Z,1.17
2019-02-16T02:11:27.556Z,2.05
2019-02-16T02:14:00.556Z,1.42
2019-02-16T02:16:33.257Z,1.60
2019-02-16T02:19:06.876Z,1.80
2019-02-16T02:21:41.421Z,1.70
2019-02-16T02:24:13.563Z,1.10
2019-02-16T02:26:46.243Z,0.93
2019-02-16T02:29:19.137Z,1.65
2019-02-16T02:31:51.954Z,1.92
2019-02-16T02:34:24.881Z,2.27
2019-02-16T02:36:57.790Z,1.35
2019-02-16T02:39:30.328Z,1.80
2019-02-16T02:42:03.905Z,1.27
2019-02-16T02:44:37.355Z,1.32
2019-02-16T02:47:10.309Z,1.30
2019-02-16T02:49:43.903Z,2.00
2019-02-16T02:52:17.399Z,1.40
2019-02-16T02:54:51.774Z,1.85
2019-02-16T02:57:25.657Z,1.30
2019-02-16T02:59:58.343Z,1.50
2019-02-16T03:02:31.230Z,1.43
2019-02-16T03:05:04.111Z,2.43
2019-02-16T03:07:37.125Z,1.10
2019-02-16T03:10:09.901Z,1.43
2019-02-16T03:12:42.803Z,1.90
2019-02-16T03:15:15.546Z,1.33
2019-02-16T03:17:48.530Z,1.70
2019-02-16T03:20:21.204Z,1.23
2019-02-16T03:23:15.908Z,1.33
2019-02-16T03:26:02.625Z,1.57
2019-02-16T03:28:51.009Z,1.30
2019-02-16T03:32:02.034Z,1.83
2019-02-16T03:34:59.107Z,1.40
2019-02-16T03:37:48.568Z,1.50
2019-02-16T03:40:22.399Z,1.30
2019-02-16T03:42:55.287Z,1.83
2019-02-16T03:45:28.348Z,2.77
2019-02-16T03:48:01.008Z,2.97
2019-02-16T03:50:34.420Z,1.40
2019-02-16T03:53:08.323Z,1.47
2019-02-16T03:55:41.244Z,1.87
2019-02-16T03:58:15.655Z,1.57
2019-02-16T04:00:48.165Z,1.33
2019-02-16T04:03:21.084Z,1.63
2019-02-16T04:05:53.721Z,1.70
2019-02-16T04:08:26.509Z,1.80
2019-02-16T04:11:00.392Z,1.60
2019-02-16T04:13:33.125Z,1.23
2019-02-16T04:16:06.014Z,1.40
2019-02-16T04:18:38.874Z,1.70
2019-02-16T04:21:12.030Z,2.03
2019-02-16T04:23:45.518Z,1.33
2019-02-16T04:26:18.354Z,1.57
2019-02-16T04:28:51.158Z,1.90
2019-02-16T04:31:24.077Z,2.47
2019-02-16T04:33:56.719Z,1.90
2019-02-16T04:36:30.553Z,1.97
2019-02-16T04:39:03.297Z,2.00
2019-02-16T04:41:37.221Z,1.97
2019-02-16T04:44:10.194Z,1.90
2019-02-16T04:46:42.936Z,1.60
2019-02-16T04:49:15.660Z,1.77
2019-02-16T04:51:48.635Z,1.33
2019-02-16T04:54:22.440Z,1.70
2019-02-16T04:56:55.400Z,1.47
2019-02-16T04:59:28.736Z,1.53
2019-02-16T05:02:02.213Z,1.80
2019-02-16T05:04:35.190Z,1.67
2019-02-16T05:07:08.320Z,1.07
2019-02-16T05:09:40.899Z,1.53
2019-02-16T05:12:13.844Z,1.73
2019-02-16T05:14:46.550Z,2.10
2019-02-16T05:17:19.785Z,1.93
2019-02-16T05:19:52.386Z,2.30
2019-02-16T05:22:25.201Z,1.80
2019-02-16T05:24:58.015Z,1.67
2019-02-16T05:27:30.896Z,1.80
2019-02-16T05:30:03.831Z,1.93
2019-02-16T05:32:36.639Z,1.97
2019-02-16T05:35:09.823Z,2.53
2019-02-16T05:37:42.615Z,2.10
2019-02-16T05:40:15.554Z,2.37
2019-02-16T05:42:48.259Z,2.07
2019-02-16T05:45:20.977Z,1.93
2019-02-16T05:47:54.076Z,1.57
2019-02-16T05:50:26.650Z,2.57
2019-02-16T05:53:00.286Z,1.60
2019-02-16T05:55:33.161Z,2.77
2019-02-16T05:58:06.208Z,2.73
2019-02-16T06:00:39.159Z,2.13
2019-02-16T06:03:11.863Z,1.67
2019-02-16T06:05:44.851Z,2.13
2019-02-16T06:08:17.400Z,1.90
2019-02-16T06:10:50.421Z,1.43
2019-02-16T06:13:23.188Z,1.60
2019-02-16T06:15:56.639Z,2.50
2019-02-16T06:18:29.395Z,2.60
2019-02-16T06:21:02.278Z,2.73
2019-02-16T06:23:35.175Z,2.17
2019-02-16T06:26:07.963Z,1.83
2019-02-16T06:28:40.700Z,1.90
2019-02-16T06:31:13.763Z,2.23
2019-02-16T06:33:46.796Z,2.00
2019-02-16T06:36:20.615Z,2.60
2019-02-16T06:38:54.312Z,2.03
2019-02-16T06:41:27.192Z,1.83
2019-02-16T06:44:00.971Z,1.93
2019-02-16T06:46:33.652Z,1.70
2019-02-16T06:49:07.687Z,2.27
2019-02-16T06:51:40.310Z,2.00
2019-02-16T06:54:13.451Z,1.90
2019-02-16T06:56:59.179Z,2.53
2019-02-16T06:59:32.038Z,1.90
2019-02-16T07:02:05.888Z,2.33
2019-02-16T07:04:38.489Z,2.10
2019-02-16T07:07:11.147Z,2.60
2019-02-16T07:09:44.206Z,2.60
2019-02-16T07:12:17.045Z,2.40
2019-02-16T07:14:50.224Z,2.03
2019-02-16T07:17:27.073Z,1.80
2019-02-16T07:19:59.870Z,2.40
2019-02-16T07:22:32.578Z,2.47
2019-02-16T07:25:05.571Z,2.00
2019-02-16T07:27:38.225Z,1.90
2019-02-16T07:30:13.535Z,2.30
2019-02-16T07:32:46.675Z,2.10
2019-02-16T07:35:20.665Z,3.00
2019-02-16T07:37:54.029Z,2.90
2019-02-16T07:40:27.058Z,2.20
2019-02-16T07:43:01.087Z,2.70
2019-02-16T07:45:38.616Z,2.63
2019-02-16T07:48:21.938Z,2.30
2019-02-16T07:51:03.248Z,2.20
2019-02-16T07:53:43.263Z,2.40
2019-02-16T07:56:17.439Z,3.10
2019-02-16T07:58:53.152Z,2.60
2019-02-16T08:01:29.821Z,2.60
2019-02-16T08:04:10.465Z,3.47
2019-02-16T08:06:50.238Z,2.80
2019-02-16T08:09:24.211Z,2.80
2019-02-16T08:11:58.173Z,2.90
2019-02-16T08:14:32.591Z,2.80
2019-02-16T08:17:10.068Z,2.63
2019-02-16T08:19:53.414Z,1.90
2019-02-16T08:22:27.697Z,3.80
2019-02-16T08:25:01.712Z,2.80
2019-02-16T08:27:35.855Z,3.03
2019-02-16T08:30:14.232Z,2.90
2019-02-16T08:33:03.211Z,3.20
2019-02-16T08:35:53.895Z,2.70
2019-02-16T08:38:30.791Z,3.10
2019-02-16T08:41:04.880Z,3.17
2019-02-16T08:43:41.785Z,3.00
2019-02-16T08:46:22.166Z,3.07
2019-02-16T08:48:56.164Z,2.93
2019-02-16T08:51:31.291Z,2.50
2019-02-16T08:54:21.159Z,4.50
2019-02-16T08:57:02.045Z,3.27
2019-02-16T08:59:36.785Z,2.80
2019-02-16T09:02:17.442Z,2.17
2019-02-16T09:04:51.313Z,2.90
2019-02-16T09:07:31.929Z,3.20
2019-02-16T09:10:17.802Z,3.10
2019-02-16T09:12:54.699Z,3.30
2019-02-16T09:15:37.882Z,3.23
2019-02-16T09:18:28.411Z,3.20
2019-02-16T09:21:02.383Z,2.70
2019-02-16T09:23:36.438Z,2.83
2019-02-16T09:26:10.611Z,3.03
2019-02-16T09:29:00.534Z,2.40
2019-02-16T09:31:53.359Z,4.00
2019-02-16T09:34:27.371Z,2.63
2019-02-16T09:37:01.327Z,3.03
2019-02-16T09:39:41.451Z,3.20
2019-02-16T09:42:15.639Z,2.20
2019-02-16T09:45:05.736Z,2.33
2019-02-16T09:47:39.740Z,3.03
2019-02-16T09:50:20.115Z,2.40
2019-02-16T09:53:00.379Z,2.57
2019-02-16T09:55:52.554Z,2.43
2019-02-16T09:58:27.157Z,2.83
2019-02-16T10:01:04.272Z,3.80
2019-02-16T10:03:54.195Z,3.83
2019-02-16T10:06:44.587Z,2.70
2019-02-16T10:09:18.386Z,3.57
2019-02-16T10:12:04.592Z,2.70
2019-02-16T10:14:54.677Z,3.27
2019-02-16T10:17:34.939Z,3.50
2019-02-16T10:20:09.150Z,4.07
2019-02-16T10:22:49.713Z,4.20
2019-02-16T10:25:33.275Z,3.10
2019-02-16T10:28:07.703Z,3.30
2019-02-16T10:30:41.605Z,3.90
2019-02-16T10:33:25.041Z,3.40
2019-02-16T10:36:08.802Z,3.30
2019-02-16T10:38:58.849Z,2.40
2019-02-16T10:41:36.016Z,2.60
2019-02-16T10:44:28.138Z,3.00
2019-02-16T10:47:18.642Z,2.80
2019-02-16T10:50:04.155Z,2.80
2019-02-16T10:52:41.427Z,2.63
2019-02-16T10:55:31.844Z,3.00
2019-02-16T10:58:07.591Z,4.47
2019-02-16T11:00:57.272Z,3.60
2019-02-16T11:03:31.682Z,4.87
2019-02-16T11:06:11.621Z,2.73
2019-02-16T11:08:54.880Z,3.23
2019-02-16T11:11:32.039Z,5.57
2019-02-16T11:14:15.691Z,3.80
2019-02-16T11:16:55.506Z,4.67
2019-02-16T11:19:42.109Z,3.00
2019-02-16T11:22:16.038Z,4.10
2019-02-16T11:24:50.354Z,2.97
2019-02-16T11:27:30.391Z,2.77
2019-02-16T11:30:04.624Z,3.30
2019-02-16T11:32:38.619Z,3.47
2019-02-16T11:35:21.471Z,2.83
2019-02-16T11:38:07.750Z,2.53
2019-02-16T11:40:50.582Z,4.00
2019-02-16T11:43:31.255Z,3.87
2019-02-16T11:46:05.115Z,2.90
2019-02-16T11:48:54.426Z,2.63
2019-02-16T11:51:44.390Z,2.63
2019-02-16T11:54:27.867Z,4.00
2019-02-16T11:57:05.638Z,3.23
2019-02-16T11:59:39.958Z,4.17
2019-02-16T12:02:20.279Z,3.10
2019-02-16T12:05:03.216Z,2.53
2019-02-16T12:07:37.743Z,3.10
2019-02-16T12:10:30.684Z,4.70
2019-02-16T12:13:07.760Z,3.37
2019-02-16T12:15:47.532Z,4.70
2019-02-16T12:18:21.653Z,3.27
2019-02-16T12:20:58.434Z,4.00
2019-02-16T12:23:51.066Z,2.77
2019-02-16T12:26:37.374Z,2.70
2019-02-16T12:29:11.386Z,4.20
2019-02-16T12:32:03.401Z,3.07
2019-02-16T12:34:53.987Z,3.40
2019-02-16T12:37:30.570Z,2.87
2019-02-16T12:40:04.482Z,3.20
2019-02-16T12:42:50.569Z,6.07
2019-02-16T12:45:31.331Z,3.27
2019-02-16T12:48:05.160Z,3.10
2019-02-16T12:50:39.404Z,4.13
2019-02-16T12:53:20.049Z,3.43
2019-02-16T12:56:00.062Z,3.30
2019-02-16T12:58:36.960Z,3.17
2019-02-16T13:01:14.557Z,3.30
2019-02-16T13:04:03.928Z,3.00
2019-02-16T13:06:44.897Z,3.30
2019-02-16T13:09:21.809Z,4.40
2019-02-16T13:11:59.272Z,4.37
2019-02-16T13:14:36.439Z,3.30
2019-02-16T13:17:10.467Z,3.33
2019-02-16T13:19:56.675Z,4.27
2019-02-16T13:22:30.979Z,3.43
2019-02-16T13:25:04.827Z,3.17
2019-02-16T13:27:50.891Z,4.70
2019-02-16T13:30:31.058Z,4.30
2019-02-16T13:33:14.456Z,3.43
2019-02-16T13:36:03.824Z,3.57
2019-02-16T13:38:49.851Z,3.17
2019-02-16T13:41:23.724Z,2.70
2019-02-16T13:44:14.528Z,3.40
2019-02-16T13:46:54.580Z,2.43
2019-02-16T13:49:44.998Z,3.93
2019-02-16T13:52:19.092Z,3.20
2019-02-16T13:54:53.089Z,3.20
2019-02-16T13:57:35.705Z,3.13
2019-02-16T14:00:13.954Z,3.50
2019-02-16T14:02:48.130Z,3.87
2019-02-16T14:05:38.114Z,2.97
2019-02-16T14:08:12.022Z,3.60
2019-02-16T14:10:48.709Z,3.03
2019-02-16T14:13:32.337Z,3.07
2019-02-16T14:16:09.201Z,3.63
2019-02-16T14:18:41.939Z,3.17
2019-02-16T14:21:14.405Z,3.43
2019-02-16T14:23:47.362Z,2.73
2019-02-16T14:26:20.203Z,3.20
2019-02-16T14:28:52.867Z,2.60
2019-02-16T14:31:28.518Z,4.80
2019-02-16T14:33:59.257Z,3.13
2019-02-16T14:36:32.269Z,4.23
2019-02-16T14:39:06.261Z,3.07
2019-02-16T14:41:38.959Z,2.90
2019-02-16T14:44:11.895Z,2.70
2019-02-16T14:46:44.806Z,3.07
2019-02-16T14:49:18.184Z,4.53
2019-02-16T14:51:50.771Z,4.00
2019-02-16T14:54:23.662Z,2.70
2019-02-16T14:56:56.332Z,3.30
2019-02-16T14:59:29.142Z,3.33
2019-02-16T15:02:02.155Z,3.43
2019-02-16T15:04:34.987Z,3.33
2019-02-16T15:07:08.060Z,3.40
2019-02-16T15:09:40.776Z,3.00
2019-02-16T15:12:15.017Z,3.80
2019-02-16T15:14:47.767Z,3.87
2019-02-16T15:17:20.675Z,3.17
2019-02-16T15:19:53.326Z,4.73
2019-02-16T15:22:26.323Z,2.70
2019-02-16T15:24:59.090Z,3.13
2019-02-16T15:27:32.216Z,5.53
2019-02-16T15:30:04.818Z,4.90
2019-02-16T15:32:37.898Z,4.07
2019-02-16T15:35:13.002Z,3.80
2019-02-16T15:37:45.640Z,3.70
2019-02-16T15:40:18.550Z,3.90
2019-02-16T15:42:51.364Z,3.30
2019-02-16T15:45:24.343Z,3.73
2019-02-16T15:47:57.072Z,3.90
2019-02-16T15:50:29.803Z,3.53
2019-02-16T15:53:02.698Z,3.00
2019-02-16T15:55:35.356Z,3.30
2019-02-16T15:58:08.486Z,2.80
2019-02-16T16:00:41.368Z,3.97
2019-02-16T16:03:15.232Z,3.60
2019-02-16T16:05:48.111Z,3.20
2019-02-16T16:08:22.239Z,3.17
2019-02-16T16:10:56.095Z,4.03
2019-02-16T16:13:46.774Z,4.27
2019-02-16T16:16:24.209Z,3.40
2019-02-16T16:19:01.477Z,4.17
2019-02-16T16:21:54.227Z,5.20
2019-02-16T16:24:40.735Z,3.50
2019-02-16T16:27:17.496Z,4.13
2019-02-16T16:30:08.608Z,3.37
2019-02-16T16:32:42.527Z,3.83
2019-02-16T16:35:19.798Z,3.43
2019-02-16T16:38:06.308Z,3.50
2019-02-16T16:40:40.537Z,3.60
2019-02-16T16:43:29.901Z,4.40
2019-02-16T16:46:04.292Z,3.20
2019-02-16T16:48:47.518Z,3.17
2019-02-16T16:51:30.369Z,4.90
2019-02-16T16:54:19.914Z,4.20
2019-02-16T16:57:02.746Z,4.50
2019-02-16T16:59:39.957Z,4.77
2019-02-16T17:02:17.090Z,3.47
2019-02-16T17:04:51.519Z,5.30
2019-02-16T17:07:38.031Z,3.30
2019-02-16T17:10:30.705Z,2.93
2019-02-16T17:13:16.689Z,3.23
2019-02-16T17:16:09.106Z,4.97
2019-02-16T17:18:52.059Z,4.47
2019-02-16T17:21:41.292Z,3.80
2019-02-16T17:24:15.327Z,3.70
2019-02-16T17:26:58.932Z,4.00
2019-02-16T17:29:32.842Z,4.50
2019-02-16T17:32:16.217Z,3.17
2019-02-16T17:34:50.286Z,3.60
2019-02-16T17:37:27.188Z,4.13
2019-02-16T17:40:01.039Z,4.13
2019-02-16T17:42:35.114Z,3.60
2019-02-16T17:45:12.878Z,3.83
2019-02-16T17:47:49.758Z,3.40
2019-02-16T17:50:42.481Z,3.70
2019-02-16T17:53:19.406Z,3.47
2019-02-16T17:55:53.705Z,4.27
2019-02-16T17:58:31.402Z,3.90
2019-02-16T18:01:14.562Z,5.80
2019-02-16T18:03:48.634Z,4.83
2019-02-16T18:06:22.967Z,4.87
2019-02-16T18:08:57.090Z,4.97
2019-02-16T18:11:30.899Z,5.20
2019-02-16T18:14:11.450Z,6.43
2019-02-16T18:17:01.646Z,4.33
2019-02-16T18:19:41.885Z,4.10
2019-02-16T18:22:21.975Z,4.60
2019-02-16T18:25:02.311Z,2.90
2019-02-16T18:27:52.525Z,3.80
2019-02-16T18:30:26.717Z,3.47
2019-02-16T18:33:03.787Z,4.10
2019-02-16T18:35:40.875Z,3.90
2019-02-16T18:38:23.896Z,4.43
2019-02-16T18:41:07.027Z,3.83
2019-02-16T18:43:50.033Z,3.20
2019-02-16T18:46:33.055Z,4.13
2019-02-16T18:49:07.380Z,4.97
2019-02-16T18:51:44.517Z,5.03
2019-02-16T18:54:18.808Z,3.93
2019-02-16T18:57:06.717Z,3.67
2019-02-16T18:59:57.473Z,4.00
2019-02-16T19:02:50.096Z,3.30
2019-02-16T19:05:24.290Z,4.50
2019-02-16T19:08:04.566Z,3.00
2019-02-16T19:10:51.152Z,2.90
2019-02-16T19:13:41.741Z,3.20
2019-02-16T19:16:19.058Z,2.70
2019-02-16T19:18:53.175Z,2.67
2019-02-16T19:21:33.405Z,3.27
2019-02-16T19:24:19.712Z,2.80
2019-02-16T19:26:53.808Z,2.30
2019-02-16T19:29:44.520Z,3.03
2019-02-16T19:32:21.521Z,2.30
2019-02-16T19:35:01.943Z,3.00
2019-02-16T19:37:48.470Z,3.00
2019-02-16T19:40:28.648Z,2.40
2019-02-16T19:43:12.285Z,3.80
2019-02-16T19:45:55.682Z,3.07
2019-02-16T19:48:38.837Z,2.90
2019-02-16T19:51:19.673Z,2.70
2019-02-16T19:53:59.427Z,2.70
2019-02-16T19:56:33.565Z,2.90
2019-02-16T19:59:24.028Z,2.13
2019-02-16T20:02:03.789Z,2.70
2019-02-16T20:04:41.173Z,3.70
2019-02-16T20:07:18.252Z,2.43
2019-02-16T20:10:09.580Z,3.53
2019-02-16T20:12:52.705Z,2.20
2019-02-16T20:15:42.304Z,2.80
2019-02-16T20:18:19.280Z,2.50
2019-02-16T20:20:59.813Z,3.03
2019-02-16T20:23:33.848Z,2.50
2019-02-16T20:26:07.911Z,2.70
2019-02-16T20:28:45.150Z,2.00
2019-02-16T20:31:22.225Z,2.33
2019-02-16T20:33:56.455Z,1.83
2019-02-16T20:36:30.424Z,1.93
2019-02-16T20:39:20.937Z,2.00
2019-02-16T20:42:00.573Z,2.17
2019-02-16T20:44:49.942Z,2.60
2019-02-16T20:47:24.034Z,2.53
2019-02-16T20:50:14.718Z,2.10
2019-02-16T20:53:00.709Z,2.20
2019-02-16T20:55:37.788Z,2.47
2019-02-16T20:58:20.609Z,3.00
2019-02-16T21:00:54.815Z,2.90
2019-02-16T21:03:37.804Z,2.07
2019-02-16T21:06:18.308Z,3.03
2019-02-16T21:09:08.589Z,2.03
2019-02-16T21:12:01.249Z,1.80
2019-02-16T21:14:35.050Z,2.30
2019-02-16T21:17:08.975Z,2.40
2019-02-16T21:19:55.173Z,2.03
2019-02-16T21:22:29.297Z,2.00
2019-02-16T21:25:09.224Z,2.30
2019-02-16T21:27:59.121Z,2.20
2019-02-16T21:30:33.103Z,2.60
2019-02-16T21:33:07.321Z,2.20
2019-02-16T21:35:44.022Z,2.33
2019-02-16T21:38:18.413Z,2.30
2019-02-16T21:40:52.420Z,2.00
2019-02-16T21:43:26.503Z,2.20
2019-02-16T21:46:16.820Z,2.30
2019-02-16T21:48:51.348Z,2.07
2019-02-16T21:51:25.477Z,2.20
2019-02-16T21:54:00.497Z,2.40
2019-02-16T21:56:34.420Z,2.40
2019-02-16T21:59:18.683Z,2.17
2019-02-16T22:01:49.495Z,2.10
2019-02-16T22:04:23.304Z,2.17
2019-02-16T22:06:59.962Z,2.00
2019-02-16T22:09:50.396Z,2.57
2019-02-16T22:12:33.619Z,2.00
2019-02-16T22:15:06.603Z,2.30
2019-02-16T22:17:39.084Z,3.00
2019-02-16T22:20:13.584Z,2.03
2019-02-16T22:22:46.584Z,2.60
2019-02-16T22:25:21.268Z,2.00
2019-02-16T22:27:53.542Z,2.50
2019-02-16T22:30:26.186Z,2.47
2019-02-16T22:32:58.970Z,2.00
2019-02-16T22:35:31.963Z,2.37
2019-02-16T22:38:04.843Z,2.30
2019-02-16T22:40:38.243Z,2.50
2019-02-16T22:43:11.322Z,2.73
2019-02-16T22:45:44.138Z,1.83
2019-02-16T22:48:17.207Z,1.83
2019-02-16T22:50:49.770Z,1.93
2019-02-16T22:53:22.587Z,2.30
2019-02-16T22:55:55.424Z,2.40
2019-02-16T22:58:29.335Z,2.07
2019-02-16T23:01:04.361Z,2.25
2019-02-16T23:03:37.779Z,1.67
2019-02-16T23:06:10.654Z,1.90
2019-02-16T23:08:43.567Z,2.60
2019-02-16T23:11:16.738Z,2.40
2019-02-16T23:13:50.177Z,2.33
2019-02-16T23:16:23.413Z,1.87
2019-02-16T23:18:57.546Z,1.82
2019-02-16T23:21:30.295Z,2.27
2019-02-16T23:24:03.025Z,2.10
2019-02-16T23:26:36.602Z,2.10
2019-02-16T23:29:09.825Z,2.90
2019-02-16T23:31:42.855Z,2.30
2019-02-16T23:34:16.194Z,2.52
2019-02-16T23:36:49.773Z,2.37
2019-02-16T23:39:22.426Z,2.07
2019-02-16T23:41:55.262Z,2.90
2019-02-16T23:44:27.936Z,2.43
2019-02-16T23:47:01.520Z,2.43
2019-02-16T23:49:34.324Z,2.10
2019-02-16T23:52:07.374Z,2.37
2019-02-16T23:54:40.303Z,1.87
2019-02-16T23:57:13.500Z,2.30
2019-02-16T23:59:46.474Z,2.33
